General Aviation Weather

Text Reports

Enter one or more of the following location identifiers separated by a space:

Zip Code, Four-Character ICAO or Three-Character IATA airport codes.

METAR - Aviation Routine Weather Report
RJNK - Komatsu AB,
Updated at 7:00 PM GMT on July 22, 2014 (4:00 AM JST):
METAR RJNK 221900Z 16003KT 8000 BKN050 SCT/// 25/23 Q1007
TAF - Terminal Area Forecast
RJNK - Komatsu AB,
Updated at 7:00 PM GMT on July 22, 2014 (4:00 AM JST):
TAF RJNK 221705Z 2218/2324 20006KT 9999 FEW025=
Decoded:
ID: RJNK   Komatsu (CIV/JA, JP
REPORT TIME: 22 17: 5
VALID TIME: 22 July AT 18:00Z to 23 July AT 24:00Z.
INITIAL WX
   WINDS: 200 AT 6
   CLOUDS: 25 FEW
   COMMENTS: = 

PIREP - Pilot Weather Report
RJNK - Komatsu AB,
Updated at 7:00 PM GMT on July 22, 2014 (4:00 AM JST):
No PIREP is currently available for this location.
AIRMET - Airmens Meteorological Information
RJNK - Komatsu AB,
Updated at 7:00 PM GMT on July 22, 2014 (4:00 AM JST):
No AIRMET is currently available for this location.
SIGMET - Significant Meteorological Information
RJNK - Komatsu AB,
Updated at 7:00 PM GMT on July 22, 2014 (4:00 AM JST):
No SIGMET is currently available for this location.
NOTAM - Notice to Airmen
RJNK - Komatsu AB,
Updated at 7:00 PM GMT on July 22, 2014 (4:00 AM JST):
No NOTAM is currently available for this location.
Forecast Area
RJNK - Komatsu AB,
Updated at 7:00 PM GMT on July 22, 2014 (4:00 AM JST):
No NOTAM is currently available for this location.
Aviation Weather Maps